createdAt,value
2022-10-17T00:00:32.652Z,82.52
2022-10-17T00:01:32.656Z,82.48
2022-10-17T00:02:32.973Z,82.60
2022-10-17T00:03:32.585Z,82.64
2022-10-17T00:05:32.633Z,82.64
2022-10-17T00:06:32.585Z,82.51
2022-10-17T00:07:32.543Z,82.39
2022-10-17T00:08:32.553Z,82.19
2022-10-17T00:09:32.833Z,81.90
2022-10-17T00:10:33.214Z,81.57
2022-10-17T00:11:32.497Z,81.53
2022-10-17T00:12:32.546Z,81.81
2022-10-17T00:14:32.486Z,81.84
2022-10-17T00:15:32.423Z,81.50
2022-10-17T00:16:32.415Z,81.05
2022-10-17T00:17:32.444Z,81.23
2022-10-17T00:18:32.528Z,81.38
2022-10-17T00:19:32.395Z,81.55
2022-10-17T00:20:32.667Z,81.66
2022-10-17T00:21:32.351Z,81.74
2022-10-17T00:22:32.371Z,81.68
2022-10-17T00:23:32.695Z,81.72
2022-10-17T00:24:32.361Z,81.68
2022-10-17T00:25:32.277Z,81.52
2022-10-17T00:26:32.296Z,81.71
2022-10-17T00:27:32.266Z,81.69
2022-10-17T00:28:32.266Z,81.67
2022-10-17T00:29:32.344Z,81.83
2022-10-17T00:30:32.576Z,81.95
2022-10-17T00:31:32.233Z,81.91
2022-10-17T00:32:36.475Z,81.88
2022-10-17T00:33:32.225Z,81.84
2022-10-17T00:34:32.225Z,81.93
2022-10-17T00:35:32.474Z,81.73
2022-10-17T00:36:32.204Z,81.79
2022-10-17T00:37:32.121Z,81.87
2022-10-17T00:38:32.162Z,81.82
2022-10-17T00:39:32.277Z,82.04
2022-10-17T00:40:32.415Z,82.22
2022-10-17T00:41:32.081Z,82.24
2022-10-17T00:42:32.068Z,82.00
2022-10-17T00:43:32.076Z,81.90
2022-10-17T00:44:32.157Z,81.93
2022-10-17T00:45:32.074Z,81.87
2022-10-17T00:46:32.017Z,81.97
2022-10-17T00:47:32.045Z,81.96
2022-10-17T00:48:32.116Z,81.80
2022-10-17T00:49:32.871Z,81.93
2022-10-17T00:50:32.060Z,81.90
2022-10-17T00:51:31.971Z,81.89
2022-10-17T00:52:33.647Z,81.95
2022-10-17T00:53:32.196Z,81.92
2022-10-17T00:54:32.286Z,82.03
2022-10-17T00:55:31.906Z,82.12
2022-10-17T00:56:31.963Z,81.96
2022-10-17T00:57:32.138Z,81.90
2022-10-17T00:58:31.856Z,82.14
2022-10-17T00:59:32.752Z,82.25
2022-10-17T01:00:31.966Z,82.22
2022-10-17T01:01:31.990Z,82.16
2022-10-17T01:02:36.146Z,82.20
2022-10-17T01:03:31.886Z,82.31
2022-10-17T01:04:31.786Z,82.15
2022-10-17T01:05:31.765Z,82.28
2022-10-17T01:06:31.853Z,82.31
2022-10-17T01:07:34.694Z,82.41
2022-10-17T01:08:32.770Z,82.52
2022-10-17T01:09:31.758Z,82.36
2022-10-17T01:10:31.720Z,82.31
2022-10-17T01:11:31.817Z,82.40
2022-10-17T01:12:35.962Z,82.43
2022-10-17T01:13:31.659Z,82.32
2022-10-17T01:14:31.655Z,82.17
2022-10-17T01:15:32.478Z,82.04
2022-10-17T01:16:31.667Z,82.15
2022-10-17T01:17:31.918Z,82.19
2022-10-17T01:18:31.587Z,82.13
2022-10-17T01:19:36.568Z,81.88
2022-10-17T01:20:31.903Z,82.02
2022-10-17T01:21:31.632Z,82.05
2022-10-17T01:22:35.510Z,82.03
2022-10-17T01:23:31.634Z,81.83
2022-10-17T01:24:31.539Z,81.26
2022-10-17T01:25:31.548Z,81.34
2022-10-17T01:26:31.658Z,81.27
2022-10-17T01:27:31.506Z,81.46
2022-10-17T01:28:31.591Z,81.53
2022-10-17T01:29:31.764Z,81.44
2022-10-17T01:30:31.411Z,81.47
2022-10-17T01:31:31.486Z,81.58
2022-10-17T01:32:31.427Z,81.49
2022-10-17T01:33:35.468Z,81.65
2022-10-17T01:34:31.427Z,81.83
2022-10-17T01:35:31.370Z,81.50
2022-10-17T01:36:31.338Z,81.54
2022-10-17T01:37:31.375Z,81.29
2022-10-17T01:38:31.428Z,81.42
2022-10-17T01:39:33.392Z,81.44
2022-10-17T01:40:35.325Z,81.48
2022-10-17T01:41:31.290Z,81.58
2022-10-17T01:42:31.552Z,81.69
2022-10-17T01:43:31.304Z,81.55
2022-10-17T01:44:31.268Z,81.51
2022-10-17T01:45:31.223Z,81.57
2022-10-17T01:46:31.240Z,81.71
2022-10-17T01:47:31.377Z,81.76
2022-10-17T01:48:31.618Z,81.67
2022-10-17T01:49:31.176Z,81.83
2022-10-17T01:50:31.190Z,81.68
2022-10-17T01:51:33.489Z,81.71
2022-10-17T01:52:31.166Z,81.87
2022-10-17T01:53:31.167Z,81.80
2022-10-17T01:54:31.110Z,81.94
2022-10-17T01:55:31.159Z,81.98
2022-10-17T01:56:31.159Z,81.89
2022-10-17T01:57:31.343Z,82.17
2022-10-17T01:58:31.070Z,81.95
2022-10-17T01:59:31.023Z,81.97
2022-10-17T02:00:31.021Z,81.74
2022-10-17T02:01:31.108Z,81.74
2022-10-17T02:02:31.078Z,81.93
2022-10-17T02:03:31.011Z,81.77
2022-10-17T02:04:30.992Z,81.79
2022-10-17T02:05:31.198Z,81.69
2022-10-17T02:06:30.960Z,81.46
2022-10-17T02:07:31.224Z,81.33
2022-10-17T02:08:30.966Z,81.27
2022-10-17T02:09:30.956Z,81.46
2022-10-17T02:10:30.907Z,81.35
2022-10-17T02:11:30.887Z,81.54
2022-10-17T02:12:30.900Z,81.82
2022-10-17T02:13:30.870Z,82.02
2022-10-17T02:14:30.902Z,81.91
2022-10-17T02:15:30.888Z,82.19
2022-10-17T02:16:30.832Z,81.92
2022-10-17T02:17:31.118Z,81.89
2022-10-17T02:18:30.790Z,81.72
2022-10-17T02:19:30.811Z,81.65
2022-10-17T02:20:30.850Z,81.46
2022-10-17T02:21:30.783Z,81.58
2022-10-17T02:22:30.991Z,81.64
2022-10-17T02:23:30.770Z,81.68
2022-10-17T02:24:30.743Z,81.77
2022-10-17T02:25:30.739Z,81.55
2022-10-17T02:26:31.149Z,81.80
2022-10-17T02:27:31.034Z,81.52
2022-10-17T02:28:31.522Z,81.36
2022-10-17T02:29:30.943Z,81.08
2022-10-17T02:30:30.688Z,81.12
2022-10-17T02:31:30.881Z,81.05
2022-10-17T02:32:30.673Z,81.15
2022-10-17T02:33:30.671Z,81.23
2022-10-17T02:34:30.578Z,81.30
2022-10-17T02:35:30.573Z,81.21
2022-10-17T02:36:30.594Z,81.23
2022-10-17T02:37:31.110Z,81.25
2022-10-17T02:38:30.592Z,81.19
2022-10-17T02:39:30.542Z,81.42
2022-10-17T02:40:30.524Z,81.48
2022-10-17T02:41:30.565Z,81.60
2022-10-17T02:42:31.075Z,81.76
2022-10-17T02:43:30.476Z,81.57
2022-10-17T02:44:30.542Z,81.36
2022-10-17T02:45:34.711Z,81.26
2022-10-17T02:46:30.463Z,81.47
2022-10-17T02:47:30.433Z,81.59
2022-10-17T02:48:30.442Z,81.34
2022-10-17T02:49:30.381Z,81.28
2022-10-17T02:50:30.429Z,81.28
2022-10-17T02:51:30.573Z,81.48
2022-10-17T02:52:30.760Z,81.51
2022-10-17T02:53:30.383Z,81.56
2022-10-17T02:54:30.312Z,81.69
2022-10-17T02:55:30.312Z,81.79
2022-10-17T02:56:30.305Z,81.48
2022-10-17T02:57:30.319Z,81.15
2022-10-17T02:58:30.266Z,80.94
2022-10-17T02:59:30.349Z,81.05
2022-10-17T03:00:30.242Z,81.09
2022-10-17T03:01:30.301Z,81.11
2022-10-17T03:02:30.479Z,81.18
2022-10-17T03:03:30.236Z,81.01
2022-10-17T03:04:34.421Z,81.17
2022-10-17T03:05:30.223Z,81.37
2022-10-17T03:06:30.232Z,81.38
2022-10-17T03:07:30.144Z,81.29
2022-10-17T03:08:30.197Z,81.39
2022-10-17T03:09:30.139Z,81.13
2022-10-17T03:10:30.173Z,80.53
2022-10-17T03:11:30.140Z,80.46
2022-10-17T03:12:30.569Z,80.81
2022-10-17T03:13:30.134Z,81.11
2022-10-17T03:14:30.382Z,80.81
2022-10-17T03:15:30.070Z,80.69
2022-10-17T03:16:30.072Z,80.76
2022-10-17T03:17:30.053Z,80.58
2022-10-17T03:18:30.027Z,80.46
2022-10-17T03:19:29.990Z,80.53
2022-10-17T03:20:30.009Z,80.61
2022-10-17T03:21:30.154Z,80.63
2022-10-17T03:22:30.240Z,80.86
2022-10-17T03:23:29.965Z,80.64
2022-10-17T03:24:29.984Z,80.51
2022-10-17T03:25:30.166Z,80.40
2022-10-17T03:26:29.954Z,80.43
2022-10-17T03:27:30.135Z,80.42
2022-10-17T03:28:29.962Z,80.43
2022-10-17T03:29:29.896Z,80.86
2022-10-17T03:30:29.847Z,80.60
2022-10-17T03:31:29.872Z,80.33
2022-10-17T03:32:29.872Z,80.35
2022-10-17T03:33:29.825Z,80.01
2022-10-17T03:34:29.814Z,79.86
2022-10-17T03:35:29.823Z,79.90
2022-10-17T03:36:29.765Z,79.88
2022-10-17T03:37:30.084Z,80.22
2022-10-17T03:38:29.783Z,79.93
2022-10-17T03:39:29.750Z,80.19
2022-10-17T03:40:29.746Z,80.36
2022-10-17T03:41:29.724Z,80.31
2022-10-17T03:42:29.714Z,80.02
2022-10-17T03:43:29.736Z,79.45
2022-10-17T03:44:29.713Z,79.68
2022-10-17T03:45:29.691Z,79.82
2022-10-17T03:46:29.647Z,79.76
2022-10-17T03:47:29.875Z,79.93
2022-10-17T03:48:29.644Z,80.33
2022-10-17T03:49:29.604Z,80.17
2022-10-17T03:50:29.997Z,80.09
2022-10-17T03:51:29.612Z,79.80
2022-10-17T03:52:29.594Z,79.82
2022-10-17T03:53:29.574Z,79.85
2022-10-17T03:54:29.545Z,79.79
2022-10-17T03:55:29.574Z,79.72
2022-10-17T03:56:29.534Z,79.87
2022-10-17T03:57:29.696Z,80.08
2022-10-17T03:58:29.576Z,80.05
2022-10-17T03:59:29.484Z,79.93
2022-10-17T04:00:29.464Z,79.70
2022-10-17T04:01:29.482Z,79.60
2022-10-17T04:02:29.725Z,79.69
2022-10-17T04:03:29.445Z,79.83
2022-10-17T04:04:29.426Z,79.65
2022-10-17T04:05:29.395Z,79.56
2022-10-17T04:06:29.401Z,79.45
2022-10-17T04:07:29.426Z,79.52
2022-10-17T04:08:29.408Z,79.58
2022-10-17T04:09:29.385Z,79.48
2022-10-17T04:10:29.392Z,79.66
2022-10-17T04:11:29.339Z,79.73
2022-10-17T04:12:33.523Z,79.83
2022-10-17T04:13:29.285Z,79.72
2022-10-17T04:14:29.516Z,79.70
2022-10-17T04:15:29.304Z,79.64
2022-10-17T04:16:29.356Z,79.58
2022-10-17T04:17:29.245Z,79.71
2022-10-17T04:18:29.211Z,80.03
2022-10-17T04:19:29.256Z,79.97
2022-10-17T04:20:29.180Z,79.95
2022-10-17T04:21:29.156Z,79.82
2022-10-17T04:22:29.560Z,79.83
2022-10-17T04:23:29.197Z,79.50
2022-10-17T04:24:29.106Z,79.32
2022-10-17T04:25:32.216Z,78.77
2022-10-17T04:26:30.095Z,78.79
2022-10-17T04:27:29.057Z,78.88
2022-10-17T04:28:29.188Z,78.85
2022-10-17T04:29:29.035Z,78.47
2022-10-17T04:30:29.004Z,78.77
2022-10-17T04:31:29.005Z,78.72
2022-10-17T04:32:29.288Z,78.88
2022-10-17T04:33:28.981Z,78.65
2022-10-17T04:34:28.983Z,78.72
2022-10-17T04:35:28.956Z,78.99
2022-10-17T04:36:29.605Z,79.41
2022-10-17T04:37:29.734Z,79.60
2022-10-17T04:38:28.938Z,79.53
2022-10-17T04:39:28.906Z,79.03
2022-10-17T04:40:28.889Z,78.89
2022-10-17T04:41:28.896Z,79.06
2022-10-17T04:42:29.150Z,79.15
2022-10-17T04:43:28.864Z,78.88
2022-10-17T04:44:28.915Z,79.00
2022-10-17T04:45:28.818Z,79.16
2022-10-17T04:46:28.808Z,79.24
2022-10-17T04:47:28.798Z,78.88
2022-10-17T04:48:28.779Z,78.84
2022-10-17T04:49:28.865Z,78.73
2022-10-17T04:50:28.778Z,78.75
2022-10-17T04:51:28.754Z,78.98
2022-10-17T04:52:28.920Z,79.20
2022-10-17T04:53:28.719Z,78.16
2022-10-17T04:54:28.718Z,78.04
2022-10-17T04:55:28.745Z,78.14
2022-10-17T04:56:28.738Z,77.91
2022-10-17T04:57:28.689Z,78.02
2022-10-17T04:58:28.658Z,77.99
2022-10-17T04:59:28.675Z,78.16
2022-10-17T05:00:28.689Z,78.30
2022-10-17T05:01:28.707Z,78.67
2022-10-17T05:02:28.824Z,78.75
2022-10-17T05:03:28.589Z,78.82
2022-10-17T05:04:28.589Z,79.05
2022-10-17T05:05:29.276Z,78.95
2022-10-17T05:06:28.608Z,78.97
2022-10-17T05:07:28.567Z,79.33
2022-10-17T05:08:28.549Z,79.33
2022-10-17T05:09:28.501Z,79.41
2022-10-17T05:10:28.551Z,79.33
2022-10-17T05:11:28.580Z,79.41
2022-10-17T05:12:28.777Z,79.50
2022-10-17T05:13:28.529Z,79.64
2022-10-17T05:14:28.507Z,79.69
2022-10-17T05:15:28.475Z,79.64
2022-10-17T05:16:28.581Z,79.86
2022-10-17T05:17:28.447Z,79.66
2022-10-17T05:18:28.391Z,79.83
2022-10-17T05:19:28.398Z,79.85
2022-10-17T05:20:28.370Z,79.76
2022-10-17T05:21:28.673Z,79.69
2022-10-17T05:22:28.585Z,79.45
2022-10-17T05:23:28.449Z,79.49
2022-10-17T05:24:28.303Z,79.62
2022-10-17T05:25:28.346Z,79.43
2022-10-17T05:26:28.340Z,79.29
2022-10-17T05:27:28.382Z,79.33
2022-10-17T05:28:32.388Z,79.34
2022-10-17T05:29:28.279Z,79.41
2022-10-17T05:30:28.468Z,79.26
2022-10-17T05:31:28.218Z,79.37
2022-10-17T05:32:28.493Z,79.54
2022-10-17T05:33:28.234Z,79.35
2022-10-17T05:34:28.223Z,79.42
2022-10-17T05:35:28.158Z,79.70
2022-10-17T05:36:28.139Z,79.58
2022-10-17T05:37:28.152Z,79.65
2022-10-17T05:38:32.179Z,79.21
2022-10-17T05:39:28.132Z,79.01
2022-10-17T05:40:28.842Z,79.11
2022-10-17T05:41:28.069Z,78.96
2022-10-17T05:42:29.124Z,79.04
2022-10-17T05:43:28.076Z,79.13
2022-10-17T05:44:29.880Z,78.98
2022-10-17T05:45:28.015Z,78.96
2022-10-17T05:46:28.379Z,79.03
2022-10-17T05:47:28.409Z,78.99
2022-10-17T05:48:28.051Z,79.07
2022-10-17T05:49:46.049Z,79.32
2022-10-17T05:50:29.051Z,79.14
2022-10-17T05:51:28.012Z,79.21
2022-10-17T05:52:28.394Z,79.39
2022-10-17T05:53:28.652Z,79.77
2022-10-17T05:54:27.960Z,79.75
2022-10-17T05:55:27.940Z,79.77
2022-10-17T05:56:28.003Z,79.56
2022-10-17T05:57:27.910Z,79.33
2022-10-17T05:59:28.880Z,79.56
2022-10-17T06:00:27.830Z,79.53
2022-10-17T06:01:28.579Z,79.56
2022-10-17T06:02:28.514Z,79.53
2022-10-17T06:03:28.659Z,79.62
2022-10-17T06:04:28.248Z,79.46
2022-10-17T06:05:28.239Z,79.33
2022-10-17T06:06:28.306Z,79.43
2022-10-17T06:07:27.750Z,79.55
2022-10-17T06:08:27.801Z,79.68
2022-10-17T06:09:27.700Z,79.38
2022-10-17T06:10:27.833Z,79.22
2022-10-17T06:11:27.663Z,79.32
2022-10-17T06:12:27.975Z,79.29
2022-10-17T06:13:27.659Z,77.91
2022-10-17T06:14:27.740Z,78.15
2022-10-17T06:15:27.665Z,78.20
2022-10-17T06:16:29.262Z,78.35
2022-10-17T06:17:27.623Z,78.35
2022-10-17T06:18:27.601Z,78.48
2022-10-17T06:19:27.592Z,77.95
2022-10-17T06:20:27.681Z,77.97
2022-10-17T06:21:27.565Z,78.06
2022-10-17T06:22:27.881Z,77.76
2022-10-17T06:23:27.511Z,77.64
2022-10-17T06:24:27.509Z,76.99
2022-10-17T06:25:27.477Z,77.32
2022-10-17T06:26:27.492Z,76.74
2022-10-17T06:27:27.484Z,77.00
2022-10-17T06:28:27.484Z,77.12
2022-10-17T06:29:27.432Z,77.35
2022-10-17T06:30:27.455Z,77.54
2022-10-17T06:31:27.411Z,77.64
2022-10-17T06:32:27.742Z,77.74
2022-10-17T06:33:27.370Z,77.41
2022-10-17T06:34:27.419Z,77.23
2022-10-17T06:35:27.393Z,77.48
2022-10-17T06:36:27.449Z,77.57
2022-10-17T06:37:28.386Z,77.65
2022-10-17T06:38:27.351Z,77.57
2022-10-17T06:39:27.343Z,77.71
2022-10-17T06:40:27.402Z,77.90
2022-10-17T06:41:27.292Z,77.76
2022-10-17T06:42:27.292Z,77.96
2022-10-17T06:43:27.909Z,77.84
2022-10-17T06:44:27.271Z,77.94
2022-10-17T06:45:27.231Z,78.07
2022-10-17T06:46:27.213Z,78.10
2022-10-17T06:47:27.548Z,78.31
2022-10-17T06:48:27.194Z,78.01
2022-10-17T06:49:27.182Z,77.80
2022-10-17T06:50:27.219Z,77.95
2022-10-17T06:51:27.152Z,77.92
2022-10-17T06:52:27.271Z,77.73
2022-10-17T06:53:27.144Z,77.39
2022-10-17T06:54:27.120Z,77.01
2022-10-17T06:55:27.079Z,77.20
2022-10-17T06:56:27.083Z,77.19
2022-10-17T06:57:27.438Z,77.04
2022-10-17T06:58:27.065Z,76.99
2022-10-17T06:59:27.079Z,77.02
2022-10-17T07:00:27.023Z,76.97
2022-10-17T07:01:27.022Z,76.78
2022-10-17T07:02:27.419Z,76.64
2022-10-17T07:03:26.962Z,76.44
2022-10-17T07:04:27.010Z,76.78
2022-10-17T07:05:26.944Z,77.15
2022-10-17T07:06:26.966Z,76.81
2022-10-17T07:07:27.199Z,76.76
2022-10-17T07:08:26.944Z,76.84
2022-10-17T07:09:26.931Z,76.41
2022-10-17T07:10:27.198Z,76.77
2022-10-17T07:11:26.883Z,76.49
2022-10-17T07:12:26.874Z,75.53
2022-10-17T07:13:26.893Z,75.58
2022-10-17T07:14:26.834Z,75.25
2022-10-17T07:15:26.895Z,75.37
2022-10-17T07:16:26.834Z,75.20
2022-10-17T07:17:27.054Z,75.18
2022-10-17T07:18:26.774Z,74.95
2022-10-17T07:19:26.761Z,74.96
2022-10-17T07:20:26.806Z,75.30
2022-10-17T07:21:26.736Z,75.15
2022-10-17T07:22:26.746Z,75.31
2022-10-17T07:23:26.743Z,75.13
2022-10-17T07:24:26.730Z,75.01
2022-10-17T07:25:26.707Z,75.09
2022-10-17T07:26:26.708Z,75.01
2022-10-17T07:27:26.890Z,74.68
2022-10-17T07:28:26.718Z,74.91
2022-10-17T07:29:26.654Z,75.12
2022-10-17T07:30:26.626Z,74.77
2022-10-17T07:31:26.644Z,75.06
2022-10-17T07:32:26.637Z,73.71
2022-10-17T07:33:26.604Z,73.58
2022-10-17T07:34:26.565Z,73.42
2022-10-17T07:35:26.586Z,73.96
2022-10-17T07:36:26.554Z,73.35
2022-10-17T07:37:27.227Z,73.53
2022-10-17T07:38:26.645Z,73.72
2022-10-17T07:39:26.789Z,73.65
2022-10-17T07:40:30.456Z,74.21
2022-10-17T07:41:26.496Z,73.67
2022-10-17T07:42:26.534Z,72.82
2022-10-17T07:43:26.445Z,72.64
2022-10-17T07:44:27.015Z,72.86
2022-10-17T07:45:26.513Z,72.43
2022-10-17T07:46:26.545Z,72.66
2022-10-17T07:47:26.716Z,72.78
2022-10-17T07:48:26.388Z,72.89
2022-10-17T07:49:26.384Z,72.72
2022-10-17T07:50:26.382Z,72.91
2022-10-17T07:51:26.376Z,72.68
2022-10-17T07:52:26.941Z,73.39
2022-10-17T07:53:26.654Z,72.96
2022-10-17T07:54:26.766Z,72.34
2022-10-17T07:55:26.486Z,72.97
2022-10-17T07:56:26.563Z,72.75
2022-10-17T07:57:26.636Z,72.87
2022-10-17T07:58:26.387Z,72.38
2022-10-17T07:59:26.351Z,72.19
2022-10-17T08:00:26.269Z,72.89
2022-10-17T08:01:26.265Z,72.92
2022-10-17T08:02:26.358Z,73.86
2022-10-17T08:03:26.220Z,72.91
2022-10-17T08:04:26.187Z,72.84
2022-10-17T08:05:26.194Z,73.71
2022-10-17T08:06:26.264Z,71.60
2022-10-17T08:07:29.249Z,71.57
2022-10-17T08:08:26.209Z,71.76
2022-10-17T08:09:26.098Z,71.83
2022-10-17T08:10:26.182Z,71.44
2022-10-17T08:11:26.167Z,70.83
2022-10-17T08:12:26.422Z,71.31
2022-10-17T08:13:26.087Z,71.05
2022-10-17T08:14:26.088Z,71.07
2022-10-17T08:15:29.384Z,71.33
2022-10-17T08:16:27.050Z,71.42
2022-10-17T08:17:26.017Z,73.07
2022-10-17T08:18:26.008Z,70.91
2022-10-17T08:19:26.001Z,71.57
2022-10-17T08:20:26.018Z,70.94
2022-10-17T08:21:25.959Z,70.95
2022-10-17T08:22:25.942Z,70.87
2022-10-17T08:23:25.908Z,70.39
2022-10-17T08:24:26.037Z,70.62
2022-10-17T08:25:25.956Z,71.17
2022-10-17T08:26:25.925Z,70.94
2022-10-17T08:27:25.900Z,71.29
2022-10-17T08:28:25.936Z,71.35
2022-10-17T08:29:25.879Z,71.46
2022-10-17T08:30:25.847Z,71.17
2022-10-17T08:31:25.836Z,71.55
2022-10-17T08:32:25.879Z,71.96
2022-10-17T08:33:25.933Z,72.06
2022-10-17T08:34:25.825Z,71.42
2022-10-17T08:35:25.830Z,72.00
2022-10-17T08:36:25.769Z,71.47
2022-10-17T08:37:25.791Z,71.31
2022-10-17T08:38:27.540Z,71.00
2022-10-17T08:39:25.718Z,71.31
2022-10-17T08:40:25.690Z,71.23
2022-10-17T08:41:25.727Z,71.85
2022-10-17T08:42:25.679Z,71.88
2022-10-17T08:43:25.666Z,71.44
2022-10-17T08:44:25.651Z,71.90
2022-10-17T08:45:25.676Z,72.42
2022-10-17T08:46:25.697Z,72.30
2022-10-17T08:47:25.628Z,72.81
2022-10-17T08:48:25.608Z,72.25
2022-10-17T08:49:25.630Z,71.54
2022-10-17T08:50:25.584Z,71.83
2022-10-17T08:51:25.568Z,71.44
2022-10-17T08:52:25.577Z,70.68
2022-10-17T08:53:25.532Z,70.72
2022-10-17T08:54:25.530Z,70.53
2022-10-17T08:55:25.522Z,71.21
2022-10-17T08:56:44.134Z,71.39
2022-10-17T08:57:26.601Z,71.62
2022-10-17T08:58:25.450Z,71.38
2022-10-17T08:59:25.461Z,71.40
2022-10-17T09:00:25.441Z,71.10
2022-10-17T09:01:25.407Z,71.21
2022-10-17T09:02:25.429Z,71.51
2022-10-17T09:03:25.498Z,71.27
2022-10-17T09:04:25.461Z,71.31
2022-10-17T09:05:26.590Z,71.19
2022-10-17T09:06:25.341Z,71.47
2022-10-17T09:07:25.330Z,71.88
2022-10-17T09:08:25.340Z,72.11
2022-10-17T09:09:25.325Z,71.50
2022-10-17T09:10:25.301Z,71.13
2022-10-17T09:11:25.281Z,71.04
2022-10-17T09:12:25.251Z,71.34
2022-10-17T09:13:25.331Z,70.85
2022-10-17T09:14:25.301Z,70.53
2022-10-17T09:15:25.260Z,69.98
2022-10-17T09:16:25.233Z,70.49
2022-10-17T09:17:25.276Z,70.36
2022-10-17T09:18:25.225Z,70.64
2022-10-17T09:19:25.202Z,70.03
2022-10-17T09:20:25.233Z,70.27
2022-10-17T09:21:25.201Z,70.15
2022-10-17T09:22:25.132Z,70.39
2022-10-17T09:23:25.134Z,70.27
2022-10-17T09:24:25.135Z,70.50
2022-10-17T09:25:25.104Z,70.26
2022-10-17T09:26:25.101Z,69.79
2022-10-17T09:27:25.150Z,70.25
2022-10-17T09:28:25.097Z,70.15
2022-10-17T09:29:25.066Z,69.79
2022-10-17T09:30:44.296Z,70.02
2022-10-17T09:31:26.052Z,69.89
2022-10-17T09:32:25.017Z,69.68
2022-10-17T09:33:35.511Z,69.54
2022-10-17T09:34:27.465Z,69.12
2022-10-17T09:35:25.064Z,69.46
2022-10-17T09:36:24.994Z,69.29
2022-10-17T09:37:24.984Z,70.10
2022-10-17T09:38:25.012Z,70.07
2022-10-17T09:39:24.938Z,68.84
2022-10-17T09:40:24.886Z,69.45
2022-10-17T09:41:45.545Z,68.72
2022-10-17T09:42:25.947Z,69.37
2022-10-17T09:43:24.869Z,68.80
2022-10-17T09:44:24.872Z,68.55
2022-10-17T09:45:24.837Z,68.99
2022-10-17T09:46:24.823Z,68.23
2022-10-17T09:47:24.815Z,68.09
2022-10-17T09:48:24.795Z,68.36
2022-10-17T09:49:24.812Z,69.06
2022-10-17T09:50:24.755Z,68.64
2022-10-17T09:51:26.100Z,67.46
2022-10-17T09:52:24.724Z,68.10
2022-10-17T09:53:24.729Z,67.96
2022-10-17T09:54:24.745Z,68.22
2022-10-17T09:55:24.684Z,68.17
2022-10-17T09:56:24.688Z,68.10
2022-10-17T09:57:24.656Z,68.24
2022-10-17T09:58:24.639Z,67.56
2022-10-17T09:59:24.637Z,67.73
2022-10-17T10:00:24.757Z,68.11
2022-10-17T10:01:24.741Z,67.60
2022-10-17T10:02:24.607Z,69.25
2022-10-17T10:03:24.581Z,67.50
2022-10-17T10:04:25.844Z,67.11
2022-10-17T10:05:24.545Z,67.23
2022-10-17T10:06:24.607Z,67.12
2022-10-17T10:07:28.963Z,67.05
2022-10-17T10:08:24.521Z,68.03
2022-10-17T10:09:24.582Z,66.29
2022-10-17T10:10:24.468Z,66.61
2022-10-17T10:11:24.456Z,66.59
2022-10-17T10:12:24.483Z,66.13
2022-10-17T10:13:24.446Z,65.83
2022-10-17T10:14:24.425Z,66.73
2022-10-17T10:15:24.448Z,66.40
2022-10-17T10:16:24.408Z,65.95
2022-10-17T10:17:24.436Z,65.65
2022-10-17T10:18:24.479Z,65.79
2022-10-17T10:19:24.358Z,66.05
2022-10-17T10:20:24.372Z,66.36
2022-10-17T10:21:24.329Z,65.47
2022-10-17T10:22:24.339Z,64.89
2022-10-17T10:23:24.323Z,64.68
2022-10-17T10:24:29.636Z,65.44
2022-10-17T10:25:25.316Z,64.52
2022-10-17T10:26:24.300Z,65.47
2022-10-17T10:27:24.297Z,64.12
2022-10-17T10:28:24.320Z,64.47
2022-10-17T10:29:24.238Z,64.57
2022-10-17T10:30:24.250Z,64.31
2022-10-17T10:31:24.229Z,64.44
2022-10-17T10:32:24.200Z,64.07
2022-10-17T10:33:24.486Z,64.85
2022-10-17T10:34:24.160Z,63.91
2022-10-17T10:35:24.169Z,63.71
2022-10-17T10:36:24.247Z,63.62
2022-10-17T10:37:24.160Z,63.54
2022-10-17T10:38:24.131Z,63.37
2022-10-17T10:39:24.102Z,64.08
2022-10-17T10:40:24.092Z,63.47
2022-10-17T10:41:24.092Z,62.57
2022-10-17T10:42:24.132Z,63.39
2022-10-17T10:43:24.043Z,63.22
2022-10-17T10:44:24.032Z,63.96
2022-10-17T10:45:43.284Z,64.05
2022-10-17T10:46:25.015Z,63.49
2022-10-17T10:47:24.014Z,63.61
2022-10-17T10:48:24.003Z,64.33
2022-10-17T10:49:24.020Z,63.05
2022-10-17T10:50:23.962Z,63.61
2022-10-17T10:51:23.943Z,62.56
2022-10-17T10:52:23.923Z,62.98
2022-10-17T10:53:23.964Z,60.96
2022-10-17T10:54:23.956Z,61.52
2022-10-17T10:55:23.941Z,61.25
2022-10-17T10:56:23.894Z,61.49
2022-10-17T10:57:23.885Z,61.91
2022-10-17T10:58:23.895Z,62.08
2022-10-17T10:59:23.864Z,62.27
2022-10-17T11:00:23.877Z,62.59
2022-10-17T11:01:23.851Z,62.42
2022-10-17T11:02:23.793Z,61.45
2022-10-17T11:03:23.798Z,61.54
2022-10-17T11:04:23.784Z,61.50
2022-10-17T11:05:23.746Z,61.53
2022-10-17T11:06:23.775Z,61.26
2022-10-17T11:07:23.743Z,60.59
2022-10-17T11:08:23.735Z,61.17
2022-10-17T11:09:23.725Z,60.41
2022-10-17T11:10:23.751Z,61.31
2022-10-17T11:11:23.758Z,60.78
2022-10-17T11:12:23.713Z,60.93
2022-10-17T11:13:23.668Z,61.12
2022-10-17T11:14:23.646Z,60.98
2022-10-17T11:15:23.678Z,59.69
2022-10-17T11:16:23.630Z,60.41
2022-10-17T11:17:23.619Z,60.64
2022-10-17T11:18:23.608Z,59.32
2022-10-17T11:19:23.566Z,59.63
2022-10-17T11:20:23.578Z,59.73
2022-10-17T11:21:23.593Z,60.20
2022-10-17T11:22:26.590Z,59.65
2022-10-17T11:23:24.560Z,59.25
2022-10-17T11:24:23.519Z,59.75
2022-10-17T11:25:23.491Z,59.71
2022-10-17T11:26:23.500Z,59.48
2022-10-17T11:27:23.497Z,59.75
2022-10-17T11:28:23.526Z,60.18
2022-10-17T11:29:23.477Z,58.84
2022-10-17T11:30:23.421Z,58.33
2022-10-17T11:31:23.418Z,58.12
2022-10-17T11:32:23.431Z,57.76
2022-10-17T11:33:23.403Z,58.76
2022-10-17T11:34:23.410Z,56.87
2022-10-17T11:35:23.412Z,57.48
2022-10-17T11:36:23.364Z,56.86
2022-10-17T11:37:23.605Z,57.42
2022-10-17T11:38:23.332Z,58.27
2022-10-17T11:39:23.318Z,57.72
2022-10-17T11:40:24.485Z,58.79
2022-10-17T11:41:23.322Z,58.18
2022-10-17T11:42:23.292Z,58.82
2022-10-17T11:43:23.272Z,58.28
2022-10-17T11:44:23.232Z,57.88
2022-10-17T11:45:23.274Z,57.71
2022-10-17T11:46:23.303Z,58.20
2022-10-17T11:47:23.243Z,57.84
2022-10-17T11:48:23.195Z,57.66
2022-10-17T11:49:23.230Z,57.07
2022-10-17T11:52:44.080Z,56.99
2022-10-17T11:53:24.204Z,56.48
2022-10-17T11:54:23.128Z,56.69
2022-10-17T11:55:23.091Z,56.71
2022-10-17T11:56:23.094Z,57.26
2022-10-17T11:57:23.058Z,56.77
2022-10-17T11:58:23.112Z,56.51
2022-10-17T11:59:23.082Z,56.64
2022-10-17T12:00:23.048Z,56.78
2022-10-17T12:01:23.269Z,55.99
2022-10-17T12:02:23.025Z,56.22
2022-10-17T12:03:23.046Z,56.51
2022-10-17T12:04:23.347Z,56.81
2022-10-17T12:05:22.976Z,55.64
2022-10-17T12:06:28.510Z,55.80
2022-10-17T12:07:24.099Z,55.79
2022-10-17T12:08:22.944Z,56.58
2022-10-17T12:09:23.286Z,55.59
2022-10-17T12:10:22.967Z,57.20
2022-10-17T12:11:23.585Z,56.42
2022-10-17T12:12:22.895Z,56.33
2022-10-17T12:13:22.847Z,56.41
2022-10-17T12:14:22.863Z,55.87
2022-10-17T12:15:22.937Z,55.86
2022-10-17T12:16:22.908Z,56.58
2022-10-17T12:17:22.818Z,56.35
2022-10-17T12:18:23.048Z,56.92
2022-10-17T12:19:22.776Z,56.25
2022-10-17T12:20:22.768Z,56.24
2022-10-17T12:21:22.770Z,55.95
2022-10-17T12:22:22.781Z,55.74
2022-10-17T12:23:22.745Z,55.14
2022-10-17T12:24:22.737Z,55.39
2022-10-17T12:25:22.742Z,55.54
2022-10-17T12:26:22.680Z,55.92
2022-10-17T12:27:22.700Z,56.10
2022-10-17T12:28:22.724Z,56.22
2022-10-17T12:29:22.648Z,56.36
2022-10-17T12:30:22.709Z,56.25
2022-10-17T12:31:22.629Z,56.63
2022-10-17T12:32:22.610Z,56.63
2022-10-17T12:33:22.677Z,55.71
2022-10-17T12:34:25.420Z,56.51
2022-10-17T12:35:22.567Z,56.30
2022-10-17T12:36:22.813Z,55.61
2022-10-17T12:37:22.831Z,55.58
2022-10-17T12:38:22.532Z,55.28
2022-10-17T12:39:22.512Z,54.30
2022-10-17T12:40:22.533Z,53.79
2022-10-17T12:41:22.490Z,53.60
2022-10-17T12:42:22.482Z,53.74
2022-10-17T12:43:22.463Z,53.92
2022-10-17T12:44:22.443Z,53.58
2022-10-17T12:45:22.441Z,53.97
2022-10-17T12:46:22.469Z,54.12
2022-10-17T12:47:22.423Z,53.62
2022-10-17T12:48:22.457Z,54.02
2022-10-17T12:49:22.414Z,54.32
2022-10-17T12:50:22.370Z,54.95
2022-10-17T12:51:38.107Z,55.24
2022-10-17T12:52:23.382Z,55.44
2022-10-17T12:53:22.342Z,56.00
2022-10-17T12:54:22.324Z,54.40
2022-10-17T12:55:22.314Z,56.22
2022-10-17T12:56:22.345Z,54.66
2022-10-17T12:57:22.287Z,54.47